createdAt,value
2022-12-29T00:01:40.540Z,8.70
2022-12-29T00:04:14.282Z,8.70
2022-12-29T00:06:42.403Z,8.70
2022-12-29T00:09:09.291Z,8.70
2022-12-29T00:11:35.843Z,8.70
2022-12-29T00:14:25.911Z,8.70
2022-12-29T00:16:52.855Z,8.70
2022-12-29T00:19:38.546Z,8.70
2022-12-29T00:22:24.198Z,8.80
2022-12-29T00:25:09.541Z,8.70
2022-12-29T00:27:55.372Z,8.90
2022-12-29T00:30:42.158Z,9.00
2022-12-29T00:33:36.254Z,9.10
2022-12-29T00:36:24.472Z,9.10
2022-12-29T00:39:14.658Z,9.10
2022-12-29T00:42:00.167Z,9.10
2022-12-29T00:44:26.821Z,9.20
2022-12-29T00:46:53.475Z,9.20
2022-12-29T00:49:32.288Z,9.20
2022-12-29T00:52:00.194Z,9.20
2022-12-29T00:54:28.082Z,9.20
2022-12-29T00:56:54.894Z,9.20
2022-12-29T00:59:21.999Z,9.20
2022-12-29T01:01:48.896Z,9.20
2022-12-29T01:04:15.649Z,9.20
2022-12-29T01:06:42.501Z,9.20
2022-12-29T01:09:29.074Z,9.20
2022-12-29T01:11:56.302Z,9.20
2022-12-29T01:14:23.731Z,9.20
2022-12-29T01:16:50.824Z,9.20
2022-12-29T01:19:18.323Z,9.30
2022-12-29T01:21:45.235Z,9.30
2022-12-29T01:24:11.888Z,9.60
2022-12-29T01:26:38.460Z,9.50
2022-12-29T01:29:05.044Z,9.60
2022-12-29T01:31:31.640Z,9.60
2022-12-29T01:33:58.270Z,9.70
2022-12-29T01:36:25.113Z,9.80
2022-12-29T01:38:51.707Z,9.80
2022-12-29T01:41:18.691Z,9.90
2022-12-29T01:43:57.436Z,9.90
2022-12-29T01:46:41.225Z,9.90
2022-12-29T01:49:20.759Z,10.00
2022-12-29T01:52:03.617Z,10.10
2022-12-29T01:54:41.782Z,10.20
2022-12-29T01:57:13.555Z,10.20
2022-12-29T01:59:55.544Z,10.20
2022-12-29T02:02:22.332Z,10.30
2022-12-29T02:04:49.082Z,10.30
2022-12-29T02:07:19.891Z,10.30
2022-12-29T02:09:51.172Z,10.20
2022-12-29T02:12:20.263Z,10.20
2022-12-29T02:14:48.264Z,10.30
2022-12-29T02:17:30.876Z,10.30
2022-12-29T02:20:16.328Z,10.30
2022-12-29T02:23:03.381Z,10.30
2022-12-29T02:26:08.866Z,10.20
2022-12-29T02:28:41.455Z,10.20
2022-12-29T02:31:36.878Z,10.20
2022-12-29T02:34:23.137Z,10.30
2022-12-29T02:36:56.706Z,10.30
2022-12-29T02:39:31.537Z,10.30
2022-12-29T02:42:04.479Z,10.30
2022-12-29T02:45:04.034Z,10.40
2022-12-29T02:47:39.571Z,10.40
2022-12-29T02:50:24.203Z,10.50
2022-12-29T02:53:15.777Z,10.60
2022-12-29T02:55:53.228Z,10.70
2022-12-29T02:58:22.727Z,10.70
2022-12-29T03:00:55.096Z,10.80
2022-12-29T03:03:42.057Z,10.70
2022-12-29T03:06:34.523Z,10.70
2022-12-29T03:09:29.927Z,10.80
2022-12-29T03:12:19.773Z,10.90
2022-12-29T03:15:23.494Z,10.90
2022-12-29T03:17:59.630Z,11.00
2022-12-29T03:20:32.223Z,11.00
2022-12-29T03:23:02.564Z,11.00
2022-12-29T03:25:38.174Z,11.00
2022-12-29T03:28:13.323Z,11.00
2022-12-29T03:30:41.211Z,11.00
2022-12-29T03:33:13.211Z,10.90
2022-12-29T03:35:45.302Z,10.70
2022-12-29T03:38:26.801Z,10.60
2022-12-29T03:40:58.287Z,10.70
2022-12-29T03:43:26.474Z,10.50
2022-12-29T03:45:53.085Z,10.70
2022-12-29T03:48:19.663Z,10.80
2022-12-29T03:50:46.267Z,10.90
2022-12-29T03:53:12.886Z,10.90
2022-12-29T03:55:39.632Z,10.80
2022-12-29T03:58:06.559Z,10.60
2022-12-29T04:00:33.272Z,10.60
2022-12-29T04:02:59.915Z,10.70
2022-12-29T04:05:26.750Z,10.30
2022-12-29T04:07:53.376Z,10.40
2022-12-29T04:10:19.977Z,10.20
2022-12-29T04:12:47.516Z,10.40
2022-12-29T04:15:14.311Z,10.20
2022-12-29T04:17:40.908Z,10.40
2022-12-29T04:20:26.777Z,10.30
2022-12-29T04:23:04.371Z,10.40
2022-12-29T04:25:34.963Z,10.20
2022-12-29T04:28:01.882Z,10.40
2022-12-29T04:30:28.647Z,9.90
2022-12-29T04:32:55.617Z,10.20
2022-12-29T04:35:22.199Z,10.20
2022-12-29T04:37:48.838Z,10.30
2022-12-29T04:40:15.496Z,10.10
2022-12-29T04:42:42.108Z,10.00
2022-12-29T04:45:09.229Z,9.90
2022-12-29T04:47:35.839Z,10.00
2022-12-29T04:50:02.440Z,9.90
2022-12-29T04:52:30.152Z,9.90
2022-12-29T04:54:56.773Z,9.80
2022-12-29T04:57:23.430Z,9.80
2022-12-29T04:59:50.120Z,9.90
2022-12-29T05:02:17.506Z,9.80
2022-12-29T05:04:45.696Z,9.80
2022-12-29T05:07:12.440Z,9.90
2022-12-29T05:09:39.019Z,9.80
2022-12-29T05:12:05.999Z,9.90
2022-12-29T05:14:32.625Z,9.90
2022-12-29T05:16:59.941Z,10.00
2022-12-29T05:19:26.505Z,10.20
2022-12-29T05:21:53.196Z,10.10
2022-12-29T05:24:19.819Z,10.30
2022-12-29T05:26:46.426Z,10.40
2022-12-29T05:29:12.997Z,10.50
2022-12-29T05:31:39.667Z,10.50
2022-12-29T05:34:06.281Z,10.60
2022-12-29T05:36:37.521Z,10.70
2022-12-29T05:39:05.198Z,10.70
2022-12-29T05:41:31.793Z,10.60
2022-12-29T05:43:58.367Z,10.70
2022-12-29T05:46:24.977Z,10.90
2022-12-29T05:48:51.607Z,11.00
2022-12-29T05:51:18.395Z,10.90
2022-12-29T05:53:45.090Z,11.00
2022-12-29T05:56:11.704Z,11.30
2022-12-29T06:01:05.489Z,11.20
2022-12-29T06:03:32.383Z,11.20
2022-12-29T06:05:59.110Z,11.20
2022-12-29T06:08:25.720Z,11.10
2022-12-29T06:10:52.365Z,11.00
2022-12-29T06:13:19.050Z,10.80
2022-12-29T06:15:45.714Z,10.60
2022-12-29T06:18:19.366Z,10.40
2022-12-29T06:20:46.795Z,10.30
2022-12-29T06:23:14.149Z,10.40
2022-12-29T06:25:41.027Z,10.50
2022-12-29T06:28:07.729Z,10.80
2022-12-29T06:30:34.568Z,10.80
2022-12-29T06:33:01.179Z,10.70
2022-12-29T06:35:27.801Z,10.60
2022-12-29T06:37:54.394Z,10.40
2022-12-29T06:40:22.655Z,10.40
2022-12-29T06:42:49.263Z,10.30
2022-12-29T06:45:15.896Z,10.20
2022-12-29T06:47:43.956Z,10.30
2022-12-29T06:50:10.533Z,10.30
2022-12-29T06:52:37.139Z,10.30
2022-12-29T06:55:04.311Z,10.30
2022-12-29T06:57:30.991Z,10.40
2022-12-29T06:59:57.599Z,10.50
2022-12-29T07:02:26.415Z,10.60
2022-12-29T07:04:53.884Z,10.60
2022-12-29T07:07:21.231Z,10.40
2022-12-29T07:09:47.943Z,10.30
2022-12-29T07:12:14.588Z,10.30
2022-12-29T07:14:43.567Z,10.30
2022-12-29T07:17:10.655Z,10.30
2022-12-29T07:19:37.330Z,10.30
2022-12-29T07:22:03.948Z,10.30
2022-12-29T07:24:30.826Z,10.20
2022-12-29T07:26:57.601Z,10.00
2022-12-29T07:29:24.360Z,10.00
2022-12-29T07:31:51.050Z,10.00
2022-12-29T07:34:17.729Z,10.00
2022-12-29T07:36:44.339Z,10.10
2022-12-29T07:39:10.899Z,10.10
2022-12-29T07:41:37.478Z,10.10
2022-12-29T07:44:04.335Z,10.00
2022-12-29T07:46:55.466Z,10.00
2022-12-29T07:49:17.448Z,9.90
2022-12-29T07:51:44.009Z,9.70
2022-12-29T07:54:10.960Z,9.60
2022-12-29T07:56:37.519Z,9.60
2022-12-29T07:59:04.338Z,9.60
2022-12-29T08:01:31.094Z,9.80
2022-12-29T08:03:58.083Z,9.80
2022-12-29T08:06:24.706Z,9.80
2022-12-29T08:08:51.279Z,9.80
2022-12-29T08:11:17.879Z,9.70
2022-12-29T08:13:44.435Z,9.60
2022-12-29T08:16:11.045Z,9.70
2022-12-29T08:18:37.697Z,9.80
2022-12-29T08:21:05.073Z,9.80
2022-12-29T08:23:32.116Z,10.00
2022-12-29T08:26:00.340Z,10.10
2022-12-29T08:28:27.503Z,10.20
2022-12-29T08:30:54.445Z,10.20
2022-12-29T08:33:21.116Z,10.20
2022-12-29T08:35:47.747Z,10.30
2022-12-29T08:38:14.311Z,10.30
2022-12-29T08:40:40.906Z,10.20
2022-12-29T08:43:08.784Z,10.10
2022-12-29T08:45:35.535Z,10.00
2022-12-29T08:48:02.671Z,10.00
2022-12-29T08:50:29.238Z,10.00
2022-12-29T08:52:55.874Z,9.90
2022-12-29T08:55:22.432Z,10.10
2022-12-29T08:57:49.027Z,10.20
2022-12-29T09:00:16.062Z,10.30
2022-12-29T09:02:42.846Z,10.30
2022-12-29T09:05:10.644Z,10.60
2022-12-29T09:07:37.374Z,10.70
2022-12-29T09:10:04.928Z,10.80
2022-12-29T09:12:36.144Z,11.00
2022-12-29T09:15:04.557Z,11.10
2022-12-29T09:17:44.325Z,11.40
2022-12-29T09:20:12.766Z,11.50
2022-12-29T09:22:39.628Z,11.80
2022-12-29T09:25:06.654Z,12.00
2022-12-29T09:27:33.457Z,12.30
2022-12-29T09:30:00.057Z,12.40
2022-12-29T09:32:32.661Z,12.50
2022-12-29T09:35:00.377Z,12.50
2022-12-29T09:37:27.191Z,12.60
2022-12-29T09:39:54.692Z,12.70
2022-12-29T09:42:41.858Z,12.80
2022-12-29T09:45:34.012Z,13.00
2022-12-29T09:48:04.152Z,13.00
2022-12-29T09:50:38.008Z,13.10
2022-12-29T09:53:25.910Z,13.20
2022-12-29T09:55:56.640Z,13.30
2022-12-29T09:59:00.407Z,13.60
2022-12-29T10:01:47.268Z,13.80
2022-12-29T10:04:14.043Z,13.60
2022-12-29T10:10:21.457Z,13.40
2022-12-29T10:13:12.055Z,13.20
2022-12-29T10:15:47.488Z,13.00
2022-12-29T10:18:23.591Z,12.90
2022-12-29T10:21:05.152Z,13.10
2022-12-29T10:23:39.731Z,13.00
2022-12-29T10:26:14.557Z,12.90
2022-12-29T10:28:49.933Z,12.80
2022-12-29T10:31:34.888Z,12.90
2022-12-29T10:34:11.072Z,13.00
2022-12-29T10:36:48.250Z,13.10
2022-12-29T10:39:37.846Z,13.20
2022-12-29T10:42:33.923Z,13.30
2022-12-29T10:45:01.253Z,13.40
2022-12-29T10:47:35.465Z,13.50
2022-12-29T10:50:03.764Z,13.50
2022-12-29T10:52:33.596Z,13.60
2022-12-29T10:55:12.125Z,13.90
2022-12-29T10:57:46.995Z,13.80
2022-12-29T11:00:15.966Z,13.80
2022-12-29T11:03:07.899Z,13.80
2022-12-29T11:06:01.897Z,13.90
2022-12-29T11:08:47.947Z,13.70
2022-12-29T11:11:25.085Z,13.70
2022-12-29T11:14:03.066Z,13.80
2022-12-29T11:16:35.337Z,13.90
2022-12-29T11:19:02.452Z,14.00
2022-12-29T11:21:35.289Z,14.00
2022-12-29T11:24:05.159Z,13.90
2022-12-29T11:26:35.398Z,13.80
2022-12-29T11:29:15.893Z,13.80
2022-12-29T11:31:43.159Z,13.80
2022-12-29T11:34:17.343Z,13.80
2022-12-29T11:36:43.989Z,13.80
2022-12-29T11:39:30.714Z,13.60
2022-12-29T11:41:58.352Z,13.40
2022-12-29T11:44:25.661Z,13.30
2022-12-29T11:46:53.575Z,13.20
2022-12-29T11:49:24.296Z,13.10
2022-12-29T11:51:52.868Z,13.00
2022-12-29T11:54:28.223Z,13.00
2022-12-29T11:56:55.788Z,12.90
2022-12-29T11:59:45.852Z,12.80
2022-12-29T12:02:27.559Z,12.90
2022-12-29T12:05:02.243Z,12.70
2022-12-29T12:07:40.431Z,12.60
2022-12-29T12:10:13.741Z,12.40
2022-12-29T12:12:49.349Z,12.30
2022-12-29T12:15:32.155Z,12.20
2022-12-29T12:18:05.177Z,12.20
2022-12-29T12:20:53.004Z,12.30
2022-12-29T12:23:33.710Z,12.40
2022-12-29T12:26:17.772Z,12.40
2022-12-29T12:28:55.219Z,12.30
2022-12-29T12:31:45.971Z,12.30
2022-12-29T12:34:19.601Z,12.50
2022-12-29T12:37:12.377Z,12.70
2022-12-29T12:40:01.141Z,12.80
2022-12-29T12:43:07.380Z,13.00
2022-12-29T12:45:52.700Z,13.20
2022-12-29T12:48:51.235Z,13.30
2022-12-29T12:51:43.485Z,13.40
2022-12-29T12:54:30.800Z,13.60
2022-12-29T12:57:02.126Z,13.70
2022-12-29T12:59:41.056Z,13.60
2022-12-29T13:02:21.633Z,13.60
2022-12-29T13:05:27.235Z,13.50
2022-12-29T13:08:15.809Z,13.50
2022-12-29T13:11:16.756Z,13.30
2022-12-29T13:13:54.512Z,13.00
2022-12-29T13:16:30.102Z,12.80
2022-12-29T13:19:26.230Z,12.90
2022-12-29T13:22:10.036Z,12.80
2022-12-29T13:25:11.303Z,12.90
2022-12-29T13:28:19.109Z,12.80
2022-12-29T13:31:00.683Z,12.70
2022-12-29T13:33:40.686Z,12.70
2022-12-29T13:36:34.736Z,12.60
2022-12-29T13:39:20.712Z,12.50
2022-12-29T13:41:52.627Z,12.40
2022-12-29T13:44:25.204Z,12.30
2022-12-29T13:46:53.558Z,12.20
2022-12-29T13:49:22.793Z,12.20
2022-12-29T13:51:51.141Z,12.20
2022-12-29T13:54:45.453Z,12.30
2022-12-29T13:57:25.855Z,12.30
2022-12-29T14:00:21.993Z,12.30
2022-12-29T14:03:26.587Z,12.20
2022-12-29T14:06:18.741Z,12.20
2022-12-29T14:08:46.001Z,12.30
2022-12-29T14:11:15.263Z,12.30
2022-12-29T14:13:45.226Z,12.30
2022-12-29T14:16:28.846Z,12.20
2022-12-29T14:18:59.345Z,12.10
2022-12-29T14:21:31.907Z,12.00
2022-12-29T14:24:28.366Z,12.00
2022-12-29T14:26:55.363Z,11.90
2022-12-29T14:29:24.880Z,12.00
2022-12-29T14:31:55.758Z,12.00
2022-12-29T14:34:22.578Z,12.10
2022-12-29T14:36:59.732Z,12.10
2022-12-29T14:39:42.628Z,12.10
2022-12-29T14:42:13.070Z,12.00
2022-12-29T14:44:50.085Z,11.80
2022-12-29T14:47:31.105Z,11.80
2022-12-29T14:50:07.778Z,11.80
2022-12-29T14:53:03.812Z,11.80
2022-12-29T14:55:54.998Z,11.70
2022-12-29T14:58:42.330Z,11.70
2022-12-29T15:01:28.300Z,11.60
2022-12-29T15:03:58.854Z,11.60
2022-12-29T15:06:29.591Z,11.60
2022-12-29T15:09:05.563Z,11.50
2022-12-29T15:11:41.349Z,11.60
2022-12-29T15:14:26.732Z,11.40
2022-12-29T15:16:53.375Z,11.20
2022-12-29T15:19:24.162Z,11.10
2022-12-29T15:21:51.450Z,11.00
2022-12-29T15:24:18.193Z,11.00
2022-12-29T15:26:50.664Z,10.90
2022-12-29T15:29:39.181Z,11.00
2022-12-29T15:32:25.431Z,11.00
2022-12-29T15:34:57.700Z,11.10
2022-12-29T15:37:29.147Z,11.20
2022-12-29T15:39:56.945Z,11.20
2022-12-29T15:42:47.505Z,10.90
2022-12-29T15:45:15.153Z,10.30
2022-12-29T15:47:45.166Z,9.70
2022-12-29T15:50:26.995Z,9.40
2022-12-29T15:52:53.687Z,9.20
2022-12-29T15:55:28.465Z,9.10
2022-12-29T15:58:00.217Z,9.10
2022-12-29T16:00:29.483Z,9.00
2022-12-29T16:02:59.131Z,9.00
2022-12-29T16:05:33.465Z,9.10
2022-12-29T16:08:00.952Z,9.00
2022-12-29T16:10:31.415Z,9.00
2022-12-29T16:13:25.384Z,9.00
2022-12-29T16:16:04.091Z,9.00
2022-12-29T16:18:36.261Z,8.90
2022-12-29T16:21:05.981Z,8.90
2022-12-29T16:23:36.871Z,8.90
2022-12-29T16:26:04.945Z,8.80
2022-12-29T16:28:45.487Z,8.80
2022-12-29T16:31:24.838Z,8.80
2022-12-29T16:33:53.917Z,8.80
2022-12-29T16:36:35.368Z,8.70
2022-12-29T16:39:27.249Z,8.70
2022-12-29T16:41:55.155Z,8.70
2022-12-29T16:44:27.899Z,8.70
2022-12-29T16:47:12.178Z,8.70
2022-12-29T16:49:43.042Z,8.70
2022-12-29T16:52:22.337Z,8.70
2022-12-29T16:55:15.900Z,8.60
2022-12-29T16:57:44.368Z,8.70
2022-12-29T17:00:23.267Z,8.70
2022-12-29T17:02:51.993Z,8.70
2022-12-29T17:05:19.305Z,8.60
2022-12-29T17:07:47.069Z,8.60
2022-12-29T17:10:16.980Z,8.60
2022-12-29T17:12:45.861Z,8.60
2022-12-29T17:15:27.302Z,8.60
2022-12-29T17:17:57.227Z,8.60
2022-12-29T17:20:26.761Z,8.60
2022-12-29T17:22:56.643Z,8.60
2022-12-29T17:25:37.454Z,8.60
2022-12-29T17:28:11.616Z,8.70
2022-12-29T17:30:39.773Z,8.60
2022-12-29T17:33:12.592Z,8.60
2022-12-29T17:35:39.260Z,8.60
2022-12-29T17:38:30.032Z,8.60
2022-12-29T17:40:57.208Z,8.60
2022-12-29T17:43:24.437Z,8.50
2022-12-29T17:45:56.543Z,8.60
2022-12-29T17:48:23.858Z,8.70
2022-12-29T17:50:53.087Z,8.50
2022-12-29T17:53:23.026Z,8.60
2022-12-29T17:55:49.604Z,8.60
2022-12-29T17:58:21.890Z,8.80
2022-12-29T18:00:50.347Z,8.50
2022-12-29T18:03:24.438Z,8.60
2022-12-29T18:05:51.162Z,8.60
2022-12-29T18:08:17.723Z,8.60
2022-12-29T18:10:44.484Z,8.50
2022-12-29T18:15:57.900Z,8.50
2022-12-29T18:18:26.871Z,8.50
2022-12-29T18:20:55.823Z,8.40
2022-12-29T18:23:28.226Z,8.40
2022-12-29T18:26:22.279Z,8.30
2022-12-29T18:28:54.237Z,8.30
2022-12-29T18:31:22.092Z,8.30
2022-12-29T18:33:50.495Z,8.30
2022-12-29T18:36:18.009Z,8.20
2022-12-29T18:38:44.919Z,8.20
2022-12-29T18:41:37.835Z,8.20
2022-12-29T18:44:04.458Z,8.20
2022-12-29T18:46:31.106Z,8.20
2022-12-29T18:48:57.718Z,8.20
2022-12-29T18:51:25.690Z,8.20
2022-12-29T18:53:55.787Z,8.20
2022-12-29T18:56:23.346Z,8.20
2022-12-29T18:58:50.802Z,8.20
2022-12-29T19:01:27.713Z,8.10
2022-12-29T19:03:54.599Z,8.10
2022-12-29T19:06:21.635Z,8.10
2022-12-29T19:08:48.356Z,8.10
2022-12-29T19:11:15.039Z,8.10
2022-12-29T19:13:41.640Z,8.00
2022-12-29T19:16:18.222Z,8.00
2022-12-29T19:18:48.816Z,8.00
2022-12-29T19:21:21.812Z,8.10
2022-12-29T19:23:49.166Z,8.00
2022-12-29T19:26:27.707Z,8.00
2022-12-29T19:28:54.260Z,7.90
2022-12-29T19:31:20.887Z,7.90
2022-12-29T19:33:47.547Z,7.80
2022-12-29T19:36:16.390Z,7.90
2022-12-29T19:38:43.147Z,7.80
2022-12-29T19:41:09.682Z,7.80
2022-12-29T19:43:36.473Z,7.70
2022-12-29T19:46:11.590Z,7.70
2022-12-29T19:48:38.262Z,7.70
2022-12-29T19:51:11.844Z,7.70
2022-12-29T19:53:38.562Z,7.70
2022-12-29T19:56:07.545Z,7.70
2022-12-29T19:58:36.523Z,7.70
2022-12-29T20:01:13.292Z,7.60
2022-12-29T20:03:40.446Z,7.60
2022-12-29T20:06:08.739Z,7.70
2022-12-29T20:08:36.846Z,7.70
2022-12-29T20:11:09.910Z,7.60
2022-12-29T20:13:36.515Z,7.70
2022-12-29T20:16:07.412Z,7.70
2022-12-29T20:18:37.682Z,7.70
2022-12-29T20:21:07.103Z,7.60
2022-12-29T20:23:34.911Z,7.70
2022-12-29T20:26:01.844Z,7.70
2022-12-29T20:28:28.977Z,7.70
2022-12-29T20:31:04.483Z,7.70
2022-12-29T20:33:32.583Z,7.70
2022-12-29T20:36:11.147Z,7.70
2022-12-29T20:38:38.794Z,7.70
2022-12-29T20:41:05.782Z,7.60
2022-12-29T20:43:32.438Z,7.60
2022-12-29T20:45:59.197Z,7.60
2022-12-29T20:48:26.226Z,7.60
2022-12-29T20:50:53.411Z,7.60
2022-12-29T20:53:19.969Z,7.60
2022-12-29T20:55:46.527Z,7.60
2022-12-29T20:58:23.678Z,7.50
2022-12-29T21:00:51.054Z,7.50
2022-12-29T21:03:19.525Z,7.40
2022-12-29T21:05:46.294Z,7.40
2022-12-29T21:08:12.982Z,7.40
2022-12-29T21:10:39.667Z,7.40
2022-12-29T21:13:06.272Z,7.40
2022-12-29T21:15:33.000Z,7.40
2022-12-29T21:17:59.620Z,7.30
2022-12-29T21:20:32.518Z,7.30
2022-12-29T21:23:00.817Z,7.30
2022-12-29T21:25:36.834Z,7.30
2022-12-29T21:28:08.292Z,7.30
2022-12-29T21:30:35.729Z,7.20
2022-12-29T21:33:02.507Z,7.20
2022-12-29T21:35:29.149Z,7.20
2022-12-29T21:37:56.013Z,7.20
2022-12-29T21:40:22.925Z,7.20
2022-12-29T21:42:49.955Z,7.20
2022-12-29T21:45:25.788Z,7.20
2022-12-29T21:48:20.749Z,7.30
2022-12-29T21:51:08.095Z,7.30
2022-12-29T21:53:38.876Z,7.40
2022-12-29T21:56:06.928Z,7.40
2022-12-29T21:58:52.860Z,7.30
2022-12-29T22:01:38.612Z,7.30
2022-12-29T22:04:24.469Z,7.40
2022-12-29T22:07:10.193Z,7.30
2022-12-29T22:09:55.584Z,7.30
2022-12-29T22:12:41.073Z,7.30
2022-12-29T22:15:07.980Z,7.30
2022-12-29T22:17:37.647Z,7.30
2022-12-29T22:20:05.512Z,7.30
2022-12-29T22:22:32.137Z,7.20
2022-12-29T22:24:58.697Z,7.20
2022-12-29T22:27:25.279Z,7.20
2022-12-29T22:29:51.873Z,7.20
2022-12-29T22:32:18.447Z,7.20
2022-12-29T22:34:46.577Z,7.20
2022-12-29T22:37:13.157Z,7.20
2022-12-29T22:39:39.774Z,7.20
2022-12-29T22:42:06.679Z,7.10
2022-12-29T22:44:33.531Z,7.20
2022-12-29T22:47:00.116Z,7.20
2022-12-29T22:49:26.765Z,7.10
2022-12-29T22:51:53.325Z,7.10
2022-12-29T22:54:19.902Z,7.10
2022-12-29T22:56:46.912Z,7.10
2022-12-29T22:59:14.761Z,7.00
2022-12-29T23:01:41.808Z,7.00
2022-12-29T23:04:55.677Z,7.00
2022-12-29T23:06:55.957Z,7.00
2022-12-29T23:09:23.142Z,7.00
2022-12-29T23:11:50.559Z,7.00
2022-12-29T23:14:17.515Z,7.00
2022-12-29T23:16:44.991Z,7.00
2022-12-29T23:19:13.104Z,7.00
2022-12-29T23:21:39.792Z,7.00
2022-12-29T23:24:07.146Z,7.00
2022-12-29T23:26:39.903Z,7.00
2022-12-29T23:29:09.694Z,7.00
2022-12-29T23:31:36.793Z,7.00
2022-12-29T23:34:05.267Z,7.10
2022-12-29T23:36:32.414Z,7.10
2022-12-29T23:38:59.449Z,7.10
2022-12-29T23:41:26.814Z,7.10
2022-12-29T23:43:53.781Z,7.10
2022-12-29T23:46:24.246Z,7.00
2022-12-29T23:48:51.047Z,7.00
2022-12-29T23:51:17.922Z,6.90
2022-12-29T23:53:45.181Z,6.90
2022-12-29T23:56:19.791Z,6.90
2022-12-29T23:58:46.555Z,6.90
